createdAt,value
2017-11-30T00:00:08.707Z,100472.47
2017-11-30T00:01:13.156Z,100468.93
2017-11-30T00:02:18.007Z,100464.55
2017-11-30T00:03:22.302Z,100469.80
2017-11-30T00:04:26.492Z,100468.48
2017-11-30T00:05:30.883Z,100462.76
2017-11-30T00:06:35.028Z,100454.88
2017-11-30T00:07:39.270Z,100458.78
2017-11-30T00:08:43.525Z,100454.91
2017-11-30T00:09:48.026Z,100458.81
2017-11-30T00:10:52.215Z,100456.63
2017-11-30T00:11:56.402Z,100460.56
2017-11-30T00:13:00.604Z,100460.59
2017-11-30T00:14:04.714Z,100458.91
2017-11-30T00:15:09.126Z,100460.70
2017-11-30T00:16:13.845Z,100458.91
2017-11-30T00:17:19.017Z,100458.44
2017-11-30T00:18:23.192Z,100455.34
2017-11-30T00:19:27.419Z,100448.77
2017-11-30T00:20:31.635Z,100448.33
2017-11-30T00:21:35.763Z,100450.99
2017-11-30T00:22:40.548Z,100447.52
2017-11-30T00:23:44.760Z,100439.63
2017-11-30T00:24:48.916Z,100450.15
2017-11-30T00:25:53.491Z,100443.11
2017-11-30T00:26:57.654Z,100442.26
2017-11-30T00:28:02.612Z,100441.79
2017-11-30T00:29:06.800Z,100449.20
2017-11-30T00:30:13.088Z,100433.95
2017-11-30T00:31:17.255Z,100429.98
2017-11-30T00:32:21.435Z,100437.03
2017-11-30T00:33:25.706Z,100424.76
2017-11-30T00:34:29.796Z,100431.30
2017-11-30T00:35:34.022Z,100425.17
2017-11-30T00:36:38.168Z,100424.73
2017-11-30T00:37:42.440Z,100419.06
2017-11-30T00:38:46.645Z,100426.98
2017-11-30T00:39:50.795Z,100418.73
2017-11-30T00:40:54.970Z,100423.97
2017-11-30T00:41:59.182Z,100420.86
2017-11-30T00:43:34.057Z,100416.60
2017-11-30T00:44:45.423Z,100421.42
2017-11-30T00:45:49.738Z,100420.98
2017-11-30T00:46:53.965Z,100423.22
2017-11-30T00:47:58.196Z,100423.24
2017-11-30T00:49:03.139Z,100426.77
2017-11-30T00:50:07.247Z,100416.22
2017-11-30T00:51:11.727Z,100420.98
2017-11-30T00:52:16.033Z,100414.44
2017-11-30T00:53:20.230Z,100421.06
2017-11-30T00:54:25.337Z,100414.42
2017-11-30T00:55:29.547Z,100418.77
2017-11-30T00:56:33.713Z,100409.11
2017-11-30T00:57:38.214Z,100413.11
2017-11-30T00:58:42.354Z,100413.11
2017-11-30T00:59:46.516Z,100408.27
2017-11-30T01:00:51.032Z,100416.63
2017-11-30T01:01:55.269Z,100413.92
2017-11-30T01:02:59.671Z,100412.10
2017-11-30T01:04:04.381Z,100412.95
2017-11-30T01:05:08.590Z,100404.62
2017-11-30T01:06:12.828Z,100408.59
2017-11-30T01:07:17.134Z,100404.23
2017-11-30T01:08:21.273Z,100402.05
2017-11-30T01:09:26.255Z,100407.25
2017-11-30T01:10:30.815Z,100404.16
2017-11-30T01:11:34.918Z,100401.58
2017-11-30T01:12:39.163Z,100403.33
2017-11-30T01:13:43.260Z,100407.30
2017-11-30T01:14:47.402Z,100405.12
2017-11-30T01:15:51.819Z,100409.93
2017-11-30T01:16:56.801Z,100409.52
2017-11-30T01:18:00.891Z,100408.69
2017-11-30T01:19:05.706Z,100400.34
2017-11-30T01:20:09.838Z,100409.09
2017-11-30T01:21:22.710Z,100406.91
2017-11-30T01:22:26.869Z,100407.39
2017-11-30T01:23:31.364Z,100403.03
2017-11-30T01:24:35.566Z,100404.75
2017-11-30T01:25:39.734Z,100406.91
2017-11-30T01:26:43.858Z,100401.26
2017-11-30T01:27:48.014Z,100409.19
2017-11-30T01:28:52.452Z,100405.17
2017-11-30T01:29:57.230Z,100401.14
2017-11-30T01:31:01.806Z,100401.99
2017-11-30T01:32:06.403Z,100395.92
2017-11-30T01:33:10.565Z,100399.41
2017-11-30T01:34:14.791Z,100400.26
2017-11-30T01:35:19.319Z,100398.95
2017-11-30T01:36:23.661Z,100400.23
2017-11-30T01:37:27.890Z,100403.34
2017-11-30T01:38:32.024Z,100402.45
2017-11-30T01:39:36.180Z,100404.27
2017-11-30T01:40:40.329Z,100405.64
2017-11-30T01:41:44.883Z,100406.08
2017-11-30T01:42:49.013Z,100399.94
2017-11-30T01:43:53.323Z,100401.69
2017-11-30T01:44:57.551Z,100394.70
2017-11-30T01:46:02.512Z,100392.48
2017-11-30T01:47:06.700Z,100397.72
2017-11-30T01:48:11.151Z,100394.22
2017-11-30T01:49:15.376Z,100392.42
2017-11-30T01:50:19.509Z,100390.20
2017-11-30T01:51:23.854Z,100396.41
2017-11-30T01:52:28.033Z,100388.47
2017-11-30T01:53:36.722Z,100389.83
2017-11-30T01:54:41.158Z,100385.48
2017-11-30T01:55:45.362Z,100392.08
2017-11-30T01:56:49.579Z,100385.49
2017-11-30T01:57:53.755Z,100392.52
2017-11-30T01:58:57.994Z,100389.41
2017-11-30T02:00:05.300Z,100389.33
2017-11-30T02:01:09.882Z,100384.03
2017-11-30T02:02:14.249Z,100383.14
2017-11-30T02:03:18.463Z,100378.39
2017-11-30T02:04:22.784Z,100380.14
2017-11-30T02:05:27.802Z,100381.00
2017-11-30T02:06:31.997Z,100383.66
2017-11-30T02:07:36.973Z,100378.78
2017-11-30T02:08:41.312Z,100380.09
2017-11-30T02:09:45.519Z,100380.08
2017-11-30T02:10:49.621Z,100377.42
2017-11-30T02:11:54.146Z,100378.33
2017-11-30T02:12:58.494Z,100376.16
2017-11-30T02:14:02.618Z,100381.41
2017-11-30T02:15:07.644Z,100378.36
2017-11-30T02:17:47.965Z,100378.39
2017-11-30T02:18:52.071Z,100375.34
2017-11-30T02:19:56.445Z,100364.36
2017-11-30T02:21:00.744Z,100376.20
2017-11-30T02:22:05.318Z,100363.48
2017-11-30T02:23:09.461Z,100368.28
2017-11-30T02:24:13.597Z,100369.17
2017-11-30T02:25:17.882Z,100364.35
2017-11-30T02:26:22.251Z,100364.80
2017-11-30T02:27:27.366Z,100363.02
2017-11-30T02:28:31.507Z,100361.27
2017-11-30T02:29:35.754Z,100360.42
2017-11-30T02:30:40.357Z,100361.33
2017-11-30T02:31:44.902Z,100355.56
2017-11-30T02:32:49.199Z,100355.55
2017-11-30T02:33:53.631Z,100356.84
2017-11-30T02:34:57.928Z,100358.57
2017-11-30T02:36:03.417Z,100352.06
2017-11-30T02:37:07.707Z,100353.36
2017-11-30T02:38:11.894Z,100347.22
2017-11-30T02:39:16.029Z,100352.92
2017-11-30T02:40:20.298Z,100348.09
2017-11-30T02:41:25.274Z,100348.98
2017-11-30T02:42:29.795Z,100352.92
2017-11-30T02:43:34.011Z,100359.47
2017-11-30T02:44:38.178Z,100354.23
2017-11-30T02:45:42.414Z,100347.66
2017-11-30T02:46:46.759Z,100352.05
2017-11-30T03:00:22.621Z,100338.89
2017-11-30T03:01:27.588Z,100335.37
2017-11-30T03:02:38.149Z,100341.48
2017-11-30T03:03:42.806Z,100339.29
2017-11-30T03:04:47.837Z,100342.77
2017-11-30T03:05:52.030Z,100333.56
2017-11-30T03:06:56.287Z,100335.32
2017-11-30T03:08:00.451Z,100336.20
2017-11-30T03:09:05.962Z,100329.62
2017-11-30T03:10:10.566Z,100329.63
2017-11-30T03:23:55.007Z,100324.38
2017-11-30T03:24:59.315Z,100323.48
2017-11-30T03:26:04.473Z,100327.84
2017-11-30T03:27:08.637Z,100325.66
2017-11-30T03:28:13.030Z,100330.92
2017-11-30T03:29:17.262Z,100324.31
2017-11-30T03:30:21.417Z,100328.23
2017-11-30T03:31:26.190Z,100332.64
2017-11-30T03:32:30.367Z,100333.06
2017-11-30T03:33:34.557Z,100326.92
2017-11-30T03:34:39.030Z,100326.48
2017-11-30T03:35:43.143Z,100330.87
2017-11-30T03:36:47.277Z,100324.73
2017-11-30T03:37:51.408Z,100320.38
2017-11-30T03:38:55.567Z,100322.13
2017-11-30T03:39:59.824Z,100320.81
2017-11-30T03:41:05.801Z,100325.61
2017-11-30T03:42:11.339Z,100322.11
2017-11-30T03:43:15.455Z,100315.99
2017-11-30T03:44:19.619Z,100316.45
2017-11-30T03:45:24.072Z,100318.69
2017-11-30T03:46:28.538Z,100313.86
2017-11-30T03:47:32.848Z,100313.87
2017-11-30T03:48:37.063Z,100311.23
2017-11-30T03:49:41.176Z,100321.77
2017-11-30T03:50:45.289Z,100314.73
2017-11-30T03:51:49.447Z,100314.34
2017-11-30T03:52:54.035Z,100318.30
2017-11-30T03:53:58.131Z,100320.00
2017-11-30T03:55:02.632Z,100314.73
2017-11-30T03:56:06.766Z,100316.91
2017-11-30T03:57:10.902Z,100311.68
2017-11-30T03:58:15.426Z,100309.95
2017-11-30T03:59:20.087Z,100316.56
2017-11-30T04:00:25.464Z,100315.21
2017-11-30T04:01:29.618Z,100313.48
2017-11-30T04:02:33.719Z,100314.34
2017-11-30T04:03:37.918Z,100316.54
2017-11-30T04:04:42.477Z,100313.02
2017-11-30T04:05:46.594Z,100318.70
2017-11-30T04:06:50.714Z,100312.17
2017-11-30T04:07:55.004Z,100311.81
2017-11-30T04:08:59.133Z,100310.92
2017-11-30T04:10:04.192Z,100313.94
2017-11-30T04:11:08.636Z,100309.53
2017-11-30T04:12:12.790Z,100306.48
2017-11-30T04:13:17.109Z,100308.64
2017-11-30T04:14:21.221Z,100312.16
2017-11-30T04:15:26.489Z,100303.39
2017-11-30T04:16:30.718Z,100302.97
2017-11-30T04:17:35.141Z,100303.42
2017-11-30T04:18:39.380Z,100299.49
2017-11-30T04:19:43.510Z,100301.25
2017-11-30T04:20:47.621Z,100300.41
2017-11-30T04:21:52.080Z,100306.53
2017-11-30T04:22:56.645Z,100303.89
2017-11-30T04:24:01.238Z,100306.93
2017-11-30T04:25:06.204Z,100295.52
2017-11-30T04:26:10.344Z,100300.38
2017-11-30T04:27:14.519Z,100295.11
2017-11-30T04:28:18.702Z,100294.66
2017-11-30T04:29:22.949Z,100291.55
2017-11-30T04:30:27.743Z,100299.48
2017-11-30T04:31:31.820Z,100294.69
2017-11-30T04:32:36.222Z,100293.36
2017-11-30T04:33:40.652Z,100291.19
2017-11-30T04:34:44.823Z,100294.23
2017-11-30T04:35:49.007Z,100296.86
2017-11-30T04:36:53.502Z,100292.48
2017-11-30T04:37:57.773Z,100292.03
2017-11-30T04:39:01.926Z,100294.66
2017-11-30T04:40:06.115Z,100299.91
2017-11-30T04:41:10.343Z,100297.27
2017-11-30T04:42:14.505Z,100291.13
2017-11-30T04:43:18.944Z,100292.45
2017-11-30T04:44:23.146Z,100291.61
2017-11-30T04:45:27.671Z,100292.92
2017-11-30T04:46:31.788Z,100293.79
2017-11-30T04:47:35.903Z,100296.48
2017-11-30T04:48:40.035Z,100295.17
2017-11-30T04:49:44.590Z,100289.01
2017-11-30T04:50:48.744Z,100289.88
2017-11-30T04:51:53.091Z,100289.42
2017-11-30T04:52:57.238Z,100287.23
2017-11-30T04:54:01.982Z,100286.37
2017-11-30T04:55:06.455Z,100289.45
2017-11-30T04:56:10.675Z,100281.09
2017-11-30T04:57:14.890Z,100285.45
2017-11-30T04:58:19.077Z,100282.81
2017-11-30T04:59:23.319Z,100280.20
2017-11-30T05:00:27.920Z,100278.43
2017-11-30T05:01:32.398Z,100278.89
2017-11-30T05:02:36.569Z,100272.28
2017-11-30T05:03:40.905Z,100285.03
2017-11-30T05:04:45.139Z,100281.11
2017-11-30T05:05:49.311Z,100282.42
2017-11-30T05:06:53.496Z,100286.76
2017-11-30T05:07:57.972Z,100281.51
2017-11-30T05:09:02.837Z,100286.75
2017-11-30T05:10:06.961Z,100281.49
2017-11-30T05:11:11.198Z,100285.00
2017-11-30T05:12:15.368Z,100283.70
2017-11-30T05:13:19.668Z,100287.22
2017-11-30T05:14:24.537Z,100282.83
2017-11-30T05:15:28.961Z,100276.25
2017-11-30T05:16:33.305Z,100279.77
2017-11-30T05:17:37.484Z,100274.05
2017-11-30T05:18:41.588Z,100274.50
2017-11-30T05:19:45.794Z,100276.27
2017-11-30T05:20:50.243Z,100274.07
2017-11-30T05:21:54.528Z,100271.48
2017-11-30T05:22:58.701Z,100260.93
2017-11-30T05:24:02.912Z,100266.62
2017-11-30T05:25:07.133Z,100267.92
2017-11-30T05:26:11.310Z,100265.73
2017-11-30T05:27:15.905Z,100273.19
2017-11-30T05:28:20.144Z,100273.61
2017-11-30T05:29:24.274Z,100264.83
2017-11-30T05:30:28.527Z,100271.45
2017-11-30T05:31:32.653Z,100274.94
2017-11-30T05:32:36.798Z,100271.46
2017-11-30T05:33:41.303Z,100267.09
2017-11-30T05:34:45.552Z,100271.92
2017-11-30T05:35:49.746Z,100270.58
2017-11-30T05:36:53.953Z,100270.59
2017-11-30T05:37:58.127Z,100263.14
2017-11-30T05:39:02.288Z,100261.81
2017-11-30T05:40:06.807Z,100264.47
2017-11-30T05:41:10.977Z,100265.34
2017-11-30T05:42:15.169Z,100265.36
2017-11-30T05:43:19.344Z,100261.84
2017-11-30T05:44:23.579Z,100254.36
2017-11-30T05:45:29.149Z,100268.42
2017-11-30T05:46:34.016Z,100259.20
2017-11-30T05:47:38.247Z,100262.27
2017-11-30T05:48:42.377Z,100261.41
2017-11-30T05:49:46.536Z,100255.70
2017-11-30T05:50:50.687Z,100252.17
2017-11-30T05:51:56.225Z,100258.31
2017-11-30T05:53:00.870Z,100252.59
2017-11-30T05:54:05.001Z,100253.03
2017-11-30T05:55:09.250Z,100252.19
2017-11-30T05:56:13.385Z,100255.23
2017-11-30T05:57:17.569Z,100252.19
2017-11-30T05:58:22.112Z,100255.70
2017-11-30T05:59:26.361Z,100256.11
2017-11-30T06:00:31.821Z,100254.37
2017-11-30T06:01:35.987Z,100253.05
2017-11-30T06:02:40.278Z,100255.23
2017-11-30T06:03:44.530Z,100250.84
2017-11-30T06:04:48.816Z,100253.04
2017-11-30T06:05:53.044Z,100248.66
2017-11-30T06:06:57.302Z,100248.67
2017-11-30T06:08:01.490Z,100249.97
2017-11-30T06:09:05.760Z,100249.53
2017-11-30T06:10:09.928Z,100250.42
2017-11-30T06:11:14.416Z,100246.03
2017-11-30T06:12:18.644Z,100250.84
2017-11-30T06:13:22.765Z,100258.77
2017-11-30T06:14:26.986Z,100256.11
2017-11-30T06:15:32.012Z,100256.98
2017-11-30T06:16:36.203Z,100253.93
2017-11-30T06:17:40.421Z,100252.61
2017-11-30T06:18:44.593Z,100242.07
2017-11-30T06:19:48.726Z,100241.20
2017-11-30T06:20:53.004Z,100243.81
2017-11-30T06:21:57.206Z,100252.62
2017-11-30T06:23:02.673Z,100239.87
2017-11-30T06:24:06.814Z,100247.36
2017-11-30T06:25:11.059Z,100243.40
2017-11-30T06:26:15.201Z,100252.62
2017-11-30T06:27:19.281Z,100247.80
2017-11-30T06:28:23.562Z,100249.54
2017-11-30T06:29:27.999Z,100251.28
2017-11-30T06:30:33.543Z,100240.77
2017-11-30T06:31:37.660Z,100249.55
2017-11-30T06:32:41.766Z,100249.12
2017-11-30T06:33:46.005Z,100247.80
2017-11-30T06:34:50.437Z,100244.72
2017-11-30T06:35:54.767Z,100247.77
2017-11-30T06:36:59.662Z,100239.00
2017-11-30T06:38:04.869Z,100229.77
2017-11-30T06:39:09.073Z,100231.08
2017-11-30T06:40:13.349Z,100236.36
2017-11-30T06:41:17.954Z,100228.92
2017-11-30T06:42:22.174Z,100234.19
2017-11-30T06:43:26.426Z,100224.95
2017-11-30T06:44:30.842Z,100232.86
2017-11-30T06:45:36.046Z,100231.99
2017-11-30T06:46:40.469Z,100228.91
2017-11-30T06:47:45.174Z,100226.27
2017-11-30T06:48:49.642Z,100228.91
2017-11-30T06:49:54.077Z,100232.42
2017-11-30T06:50:58.311Z,100239.86
2017-11-30T06:52:02.909Z,100231.97
2017-11-30T06:53:07.242Z,100233.28
2017-11-30T06:54:11.732Z,100235.92
2017-11-30T06:55:15.862Z,100236.81
2017-11-30T06:56:20.061Z,100231.97
2017-11-30T06:57:24.347Z,100239.00
2017-11-30T06:58:28.608Z,100231.08
2017-11-30T06:59:32.735Z,100235.94
2017-11-30T07:00:37.233Z,100237.70
2017-11-30T07:01:41.546Z,100233.73
2017-11-30T07:02:46.041Z,100242.09
2017-11-30T07:03:50.285Z,100235.91
2017-11-30T07:04:54.663Z,100235.02
2017-11-30T07:05:58.836Z,100240.31
2017-11-30T07:07:04.424Z,100230.65
2017-11-30T07:08:08.689Z,100235.93
2017-11-30T07:09:13.015Z,100242.06
2017-11-30T07:10:17.168Z,100246.47
2017-11-30T07:11:21.350Z,100238.55
2017-11-30T07:12:25.797Z,100243.83
2017-11-30T07:13:29.916Z,100240.30
2017-11-30T07:14:34.823Z,100249.52
2017-11-30T07:15:39.083Z,100247.36
2017-11-30T07:16:43.253Z,100246.02
2017-11-30T07:17:47.344Z,100249.11
2017-11-30T07:18:51.876Z,100250.42
2017-11-30T07:19:55.982Z,100253.06
2017-11-30T07:21:00.142Z,100253.92
2017-11-30T07:22:05.039Z,100246.92
2017-11-30T07:23:09.176Z,100253.51
2017-11-30T07:24:13.438Z,100256.57
2017-11-30T07:25:17.615Z,100253.05
2017-11-30T07:26:21.731Z,100250.41
2017-11-30T07:27:26.122Z,100253.92
2017-11-30T07:28:30.254Z,100252.19
2017-11-30T07:29:34.479Z,100258.33
2017-11-30T07:30:38.627Z,100251.73
2017-11-30T07:31:42.769Z,100256.56
2017-11-30T07:32:47.013Z,100254.80
2017-11-30T07:33:51.214Z,100259.20
2017-11-30T07:34:55.520Z,100259.64
2017-11-30T07:35:59.763Z,100258.77
2017-11-30T07:37:06.134Z,100260.06
2017-11-30T07:38:10.275Z,100257.45
2017-11-30T07:39:14.395Z,100256.12
2017-11-30T07:40:18.727Z,100257.00
2017-11-30T07:41:22.891Z,100249.98
2017-11-30T07:42:27.055Z,100254.36
2017-11-30T07:43:31.546Z,100253.87
2017-11-30T07:44:35.710Z,100241.52
2017-11-30T07:45:39.863Z,100248.55
2017-11-30T07:46:44.034Z,100255.18
2017-11-30T07:47:48.146Z,100249.96
2017-11-30T07:48:52.414Z,100252.62
2017-11-30T07:49:56.930Z,100252.62
2017-11-30T07:51:01.135Z,100247.77
2017-11-30T07:52:05.253Z,100249.50
2017-11-30T07:53:09.346Z,100249.03
2017-11-30T07:54:13.454Z,100243.78
2017-11-30T07:55:17.755Z,100245.56
2017-11-30T07:56:22.045Z,100252.56
2017-11-30T07:57:26.198Z,100249.93
2017-11-30T07:58:31.003Z,100256.52
2017-11-30T07:59:35.164Z,100255.22
2017-11-30T08:00:39.423Z,100253.88
2017-11-30T08:01:43.519Z,100246.84
2017-11-30T08:02:47.575Z,100254.36
2017-11-30T08:03:51.695Z,100252.17
2017-11-30T08:04:55.917Z,100250.84
2017-11-30T08:06:00.959Z,100256.55
2017-11-30T08:07:05.459Z,100258.77
2017-11-30T08:08:09.663Z,100262.25
2017-11-30T08:09:13.853Z,100259.64
2017-11-30T08:10:17.977Z,100259.63
2017-11-30T08:11:22.254Z,100264.46
2017-11-30T08:12:26.463Z,100260.52
2017-11-30T08:13:31.611Z,100260.52
2017-11-30T08:14:35.794Z,100267.98
2017-11-30T08:15:39.958Z,100264.01
2017-11-30T08:16:44.175Z,100257.42
2017-11-30T08:17:48.295Z,100261.37
2017-11-30T08:18:52.485Z,100257.00
2017-11-30T08:19:56.923Z,100257.44
2017-11-30T08:21:02.127Z,100255.27
2017-11-30T08:22:06.301Z,100256.56
2017-11-30T08:23:10.432Z,100264.47
2017-11-30T08:24:14.885Z,100255.70
2017-11-30T08:25:19.102Z,100263.16
2017-11-30T08:26:23.337Z,100261.81
2017-11-30T08:27:27.609Z,100258.75
2017-11-30T08:28:32.783Z,100257.45
2017-11-30T08:29:37.031Z,100257.87
2017-11-30T08:30:41.352Z,100262.70
2017-11-30T08:31:46.059Z,100258.77
2017-11-30T08:32:50.988Z,100256.58
2017-11-30T08:33:55.162Z,100252.16
2017-11-30T08:34:59.322Z,100252.62
2017-11-30T08:36:04.571Z,100257.45
2017-11-30T08:37:08.675Z,100257.42
2017-11-30T08:38:12.973Z,100248.21
2017-11-30T08:39:17.648Z,100254.77
2017-11-30T08:40:21.806Z,100255.63
2017-11-30T08:41:26.026Z,100249.93
2017-11-30T08:42:30.135Z,100252.12
2017-11-30T08:43:35.279Z,100250.36
2017-11-30T08:44:39.605Z,100252.53
2017-11-30T08:45:44.248Z,100247.25
2017-11-30T08:46:48.446Z,100251.20
2017-11-30T08:47:52.707Z,100243.81
2017-11-30T08:48:56.830Z,100245.09
2017-11-30T08:50:02.158Z,100249.94
2017-11-30T08:51:07.226Z,100243.29
2017-11-30T08:52:11.743Z,100241.96
2017-11-30T08:53:15.933Z,100241.99
2017-11-30T08:54:20.170Z,100242.41
2017-11-30T08:55:24.468Z,100242.34
2017-11-30T08:56:28.634Z,100238.41
2017-11-30T08:57:33.217Z,100245.84
2017-11-30T08:58:37.364Z,100248.11
2017-11-30T08:59:41.568Z,100247.61
2017-11-30T09:00:46.526Z,100241.91
2017-11-30T09:01:51.082Z,100241.94
2017-11-30T09:02:55.258Z,100241.84
2017-11-30T09:03:59.873Z,100241.34
2017-11-30T09:05:04.869Z,100245.73
2017-11-30T09:06:09.258Z,100243.63
2017-11-30T09:07:13.497Z,100240.55
2017-11-30T09:08:17.670Z,100250.22
2017-11-30T09:09:21.887Z,100252.53
2017-11-30T09:10:26.480Z,100251.17
2017-11-30T09:11:30.613Z,100237.95
2017-11-30T09:12:34.794Z,100244.56
2017-11-30T09:13:38.918Z,100239.77
2017-11-30T09:14:43.115Z,100236.24
2017-11-30T09:15:47.654Z,100246.80
2017-11-30T09:16:51.822Z,100237.97
2017-11-30T09:17:56.069Z,100234.05
2017-11-30T09:19:00.361Z,100235.34
2017-11-30T09:20:04.732Z,100232.68
2017-11-30T09:21:09.029Z,100235.31
2017-11-30T09:22:13.293Z,100229.17
2017-11-30T09:23:17.462Z,100233.99
2017-11-30T09:24:21.756Z,100237.08
2017-11-30T09:25:25.890Z,100239.72
2017-11-30T09:26:30.166Z,100228.80
2017-11-30T09:27:34.486Z,100225.25
2017-11-30T09:28:38.970Z,100226.03
2017-11-30T09:29:43.098Z,100233.50
2017-11-30T09:30:47.319Z,100233.54
2017-11-30T09:31:51.867Z,100227.41
2017-11-30T09:32:56.139Z,100235.73
2017-11-30T09:34:00.326Z,100234.89
2017-11-30T09:35:04.941Z,100231.81
2017-11-30T09:36:09.171Z,100229.63
2017-11-30T09:37:13.436Z,100233.13
2017-11-30T09:38:17.599Z,100232.76
2017-11-30T09:39:21.878Z,100227.94
2017-11-30T09:40:26.076Z,100234.13
2017-11-30T09:41:31.202Z,100229.28
2017-11-30T09:42:35.437Z,100231.92
2017-11-30T09:43:39.702Z,100230.16
2017-11-30T09:44:43.870Z,100224.00
2017-11-30T09:46:54.320Z,100221.36
2017-11-30T09:49:13.463Z,100226.98
2017-11-30T09:50:18.162Z,100226.54
2017-11-30T09:51:22.419Z,100228.34
2017-11-30T09:52:26.691Z,100223.59
2017-11-30T09:53:30.825Z,100219.16
2017-11-30T09:54:35.615Z,100219.58
2017-11-30T09:55:39.798Z,100221.77
2017-11-30T09:56:44.026Z,100222.16
2017-11-30T09:57:48.592Z,100222.14
2017-11-30T09:58:52.865Z,100217.72
2017-11-30T09:59:57.142Z,100217.32
2017-11-30T10:01:02.278Z,100219.55
2017-11-30T10:02:06.452Z,100219.18
2017-11-30T10:03:10.618Z,100217.42
2017-11-30T10:04:14.939Z,100214.79
2017-11-30T10:05:19.123Z,100220.08
2017-11-30T10:06:23.448Z,100213.05
2017-11-30T10:07:27.564Z,100211.72
2017-11-30T10:08:31.745Z,100220.08
2017-11-30T10:09:36.701Z,100214.81
2017-11-30T10:10:40.900Z,100219.23
2017-11-30T10:11:45.054Z,100215.73
2017-11-30T10:12:49.238Z,100213.55
2017-11-30T10:13:53.432Z,100218.80
2017-11-30T10:14:57.690Z,100211.73
2017-11-30T10:16:02.616Z,100211.75
2017-11-30T10:17:08.004Z,100216.15
2017-11-30T10:18:12.187Z,100210.44
2017-11-30T10:19:16.439Z,100208.26
2017-11-30T10:20:20.951Z,100207.38
2017-11-30T10:21:25.060Z,100213.09
2017-11-30T10:22:29.215Z,100209.56
2017-11-30T10:23:34.066Z,100206.06
2017-11-30T10:24:38.283Z,100207.84
2017-11-30T10:25:42.738Z,100205.17
2017-11-30T10:26:46.960Z,100205.63
2017-11-30T10:27:51.257Z,100206.52
2017-11-30T10:28:55.470Z,100208.27
2017-11-30T10:29:59.683Z,100206.95
2017-11-30T10:31:05.079Z,100206.54
2017-11-30T10:32:09.606Z,100202.56
2017-11-30T10:33:13.728Z,100203.02
2017-11-30T10:34:17.917Z,100196.84
2017-11-30T10:35:22.214Z,100202.55
2017-11-30T10:36:26.436Z,100202.98
2017-11-30T10:37:30.643Z,100198.61
2017-11-30T10:38:35.145Z,100203.01
2017-11-30T10:39:39.344Z,100203.87
2017-11-30T10:40:43.602Z,100202.55
2017-11-30T10:41:47.784Z,100206.03
2017-11-30T10:42:53.010Z,100208.27
2017-11-30T10:43:57.214Z,100206.95
2017-11-30T10:45:04.039Z,100206.08
2017-11-30T10:46:08.586Z,100208.72
2017-11-30T10:47:12.892Z,100205.23
2017-11-30T10:48:17.083Z,100201.73
2017-11-30T10:49:21.353Z,100198.64
2017-11-30T10:50:25.612Z,100208.75
2017-11-30T10:51:30.047Z,100199.96
2017-11-30T10:52:34.864Z,100203.02
2017-11-30T10:53:39.060Z,100194.70
2017-11-30T10:54:43.267Z,100201.70
2017-11-30T10:55:47.431Z,100205.22
2017-11-30T10:56:51.580Z,100200.85
2017-11-30T10:57:56.172Z,100205.23
2017-11-30T10:59:00.378Z,100199.94
2017-11-30T11:00:06.675Z,100200.81
2017-11-30T11:01:11.325Z,100196.37
2017-11-30T11:02:15.890Z,100200.77
2017-11-30T11:03:20.198Z,100203.81
2017-11-30T11:04:24.758Z,100203.43
2017-11-30T11:05:29.155Z,100206.08
2017-11-30T11:06:33.382Z,100198.17
2017-11-30T11:07:37.749Z,100204.77
2017-11-30T11:08:41.987Z,100201.68
2017-11-30T11:09:46.284Z,100194.67
2017-11-30T11:10:50.822Z,100193.80
2017-11-30T11:11:55.124Z,100190.30
2017-11-30T11:12:59.373Z,100192.50
2017-11-30T11:14:04.299Z,100191.59
2017-11-30T11:15:08.507Z,100191.14
2017-11-30T11:16:13.165Z,100191.61
2017-11-30T11:17:17.782Z,100190.72
2017-11-30T11:18:22.261Z,100190.30
2017-11-30T11:19:26.664Z,100194.23
2017-11-30T11:20:31.074Z,100194.67
2017-11-30T11:21:35.634Z,100192.94
2017-11-30T11:22:39.780Z,100189.00
2017-11-30T11:23:44.384Z,100190.30
2017-11-30T11:24:48.594Z,100188.53
2017-11-30T11:25:52.782Z,100184.58
2017-11-30T11:26:57.011Z,100186.77
2017-11-30T11:28:01.222Z,100194.66
2017-11-30T11:29:05.596Z,100192.87
2017-11-30T11:30:10.193Z,100186.73
2017-11-30T11:31:14.413Z,100192.02
2017-11-30T11:32:18.682Z,100188.08
2017-11-30T11:33:22.947Z,100188.07
2017-11-30T11:34:27.297Z,100188.02
2017-11-30T11:35:32.336Z,100188.84
2017-11-30T11:36:36.868Z,100191.47
2017-11-30T11:37:41.053Z,100186.22
2017-11-30T11:38:45.180Z,100192.25
2017-11-30T11:39:49.416Z,100187.02
2017-11-30T11:40:53.735Z,100190.97
2017-11-30T11:41:58.084Z,100192.77
2017-11-30T11:43:03.255Z,100183.55
2017-11-30T11:44:07.449Z,100188.80
2017-11-30T11:45:13.724Z,100193.16
2017-11-30T11:46:18.014Z,100182.61
2017-11-30T11:47:22.297Z,100190.97
2017-11-30T11:48:26.606Z,100190.13
2017-11-30T11:49:30.871Z,100190.52
2017-11-30T11:50:35.169Z,100182.97
2017-11-30T11:51:39.462Z,100185.48
2017-11-30T11:52:43.796Z,100180.20
2017-11-30T11:53:48.027Z,100182.95
2017-11-30T11:54:52.384Z,100179.92
2017-11-30T11:55:56.690Z,100185.11
2017-11-30T11:57:01.542Z,100181.69
2017-11-30T11:58:05.731Z,100177.29
2017-11-30T11:59:09.987Z,100180.28
2017-11-30T12:00:16.871Z,100174.51
2017-11-30T12:01:21.442Z,100176.34
2017-11-30T12:02:25.790Z,100179.52
2017-11-30T12:03:30.007Z,100176.45
2017-11-30T12:04:34.236Z,100172.54
2017-11-30T12:05:38.432Z,100175.20
2017-11-30T12:06:42.977Z,100180.48
2017-11-30T12:07:47.411Z,100176.08
2017-11-30T12:08:51.559Z,100179.52
2017-11-30T12:09:55.814Z,100174.23
2017-11-30T12:10:59.976Z,100178.15
2017-11-30T12:12:04.205Z,100169.84
2017-11-30T12:13:09.016Z,100172.53
2017-11-30T12:14:13.522Z,100180.42
2017-11-30T12:15:17.774Z,100184.80
2017-11-30T12:16:22.327Z,100182.97
2017-11-30T12:17:26.470Z,100182.16
2017-11-30T12:18:30.648Z,100182.59
2017-11-30T12:19:35.158Z,100182.64
2017-11-30T12:20:39.340Z,100175.27
2017-11-30T12:21:43.584Z,100180.93
2017-11-30T12:22:47.732Z,100180.03
2017-11-30T12:23:51.952Z,100179.51
2017-11-30T12:24:56.142Z,100183.92
2017-11-30T12:26:01.558Z,100173.38
2017-11-30T12:27:05.718Z,100177.38
2017-11-30T12:28:09.992Z,100170.38
2017-11-30T12:29:14.496Z,100174.81
2017-11-30T12:30:18.784Z,100172.20
2017-11-30T12:31:23.243Z,100175.70
2017-11-30T12:32:27.773Z,100178.31
2017-11-30T12:33:32.773Z,100173.92
2017-11-30T12:34:37.087Z,100171.66
2017-11-30T12:35:41.392Z,100179.97
2017-11-30T12:36:45.590Z,100173.41
2017-11-30T12:37:49.771Z,100173.33
2017-11-30T12:38:53.942Z,100173.69
2017-11-30T12:39:58.174Z,100172.31
2017-11-30T12:41:03.470Z,100170.98
2017-11-30T12:42:07.822Z,100175.83
2017-11-30T12:43:12.520Z,100173.31
2017-11-30T12:44:16.756Z,100164.87